Time;durP1;ratioP1;P1;durP2;ratioP2;P2;SDS_P1;SDS_P2;PMS_P1;PMS_P2;Temp;Humidity;BMP_temperature;BMP_pressure;BME280_temperature;BME280_humidity;BME280_pressure;Samples;Min_cycle;Max_cycle;Signal;HPM_P1;HPM_P2
2023/01/20 00:00:38;;;;;;;12.20;11.00;;;1.80;1.00;;;;;;5040460;28;20525;-38
2023/01/20 00:03:03;;;;;;;13.57;11.70;;;1.80;1.00;;;;;;5040240;28;20178;-40
2023/01/20 00:05:29;;;;;;;11.80;10.37;;;1.80;99.90;;;;;;5039987;28;20186;-40
2023/01/20 00:07:55;;;;;;;13.10;11.80;;;1.80;99.90;;;;;;5039942;28;20510;-37
2023/01/20 00:10:20;;;;;;;12.50;11.20;;;1.80;99.90;;;;;;5040194;28;20178;-38
2023/01/20 00:12:46;;;;;;;11.00;9.90;;;1.80;99.90;;;;;;5039983;28;20178;-42
2023/01/20 00:15:12;;;;;;;12.67;11.37;;;1.80;1.00;;;;;;5040373;28;20171;-38
2023/01/20 00:17:37;;;;;;;13.97;11.43;;;1.80;1.00;;;;;;5039953;28;20186;-38
2023/01/20 00:20:04;;;;;;;10.80;9.70;;;1.90;1.00;;;;;;5040622;28;20317;-39
2023/01/20 00:22:30;;;;;;;12.30;11.00;;;1.90;1.00;;;;;;5040870;28;20186;-38
2023/01/20 00:24:55;;;;;;;13.83;12.20;;;1.90;1.00;;;;;;5040999;28;20898;-37
2023/01/20 00:27:21;;;;;;;12.90;10.67;;;1.90;1.00;;;;;;5040224;28;20519;-43
2023/01/20 00:29:47;;;;;;;12.03;10.77;;;1.90;1.00;;;;;;5040462;28;20171;-39
2023/01/20 00:32:12;;;;;;;12.10;10.70;;;1.90;1.00;;;;;;5039766;28;20213;-38
2023/01/20 00:34:38;;;;;;;12.50;11.00;;;1.90;1.00;;;;;;5040032;28;20179;-37
2023/01/20 00:37:04;;;;;;;11.67;10.27;;;1.90;1.00;;;;;;5040185;28;20454;-38
2023/01/20 00:39:29;;;;;;;12.90;11.70;;;1.90;1.00;;;;;;5039853;28;20574;-37
2023/01/20 00:41:55;;;;;;;12.40;11.20;;;2.00;1.00;;;;;;5040428;28;20292;-38
2023/01/20 00:44:20;;;;;;;13.00;11.23;;;2.00;1.00;;;;;;5040489;28;20257;-38
2023/01/20 00:46:46;;;;;;;12.37;10.57;;;2.00;1.00;;;;;;5040233;28;20182;-37
2023/01/20 00:49:12;;;;;;;12.90;11.60;;;2.00;1.00;;;;;;5039580;28;20185;-37
2023/01/20 00:51:37;;;;;;;11.33;9.90;;;2.00;1.00;;;;;;5040481;28;20285;-37
2023/01/20 00:54:03;;;;;;;12.17;10.50;;;2.00;1.00;;;;;;5039764;28;20436;-40
2023/01/20 00:56:29;;;;;;;12.63;11.30;;;2.00;1.00;;;;;;5040163;28;20186;-37
2023/01/20 00:58:55;;;;;;;11.77;10.67;;;2.00;1.00;;;;;;5039086;28;20311;-38
2023/01/20 01:01:21;;;;;;;13.00;10.73;;;2.00;1.00;;;;;;5039676;28;20210;-38
2023/01/20 01:03:47;;;;;;;12.57;11.10;;;2.00;1.00;;;;;;5039863;28;20177;-37
2023/01/20 01:06:16;;;;;;;13.13;11.83;;;2.00;1.00;;;;;;5039984;28;20701;-40
2023/01/20 01:08:42;;;;;;;12.40;11.10;;;2.00;1.00;;;;;;5039663;28;20182;-40
2023/01/20 01:11:08;;;;;;;13.23;11.80;;;2.00;1.00;;;;;;5039554;28;20750;-38
2023/01/20 01:13:36;;;;;;;12.90;10.50;;;2.00;1.00;;;;;;5039031;28;20805;-40
2023/01/20 01:16:01;;;;;;;15.07;10.83;;;2.00;1.00;;;;;;5039666;28;20471;-37
2023/01/20 01:18:27;;;;;;;11.67;10.47;;;2.00;1.00;;;;;;5039853;28;20464;-37
2023/01/20 01:20:53;;;;;;;12.47;11.17;;;2.10;1.00;;;;;;5039733;28;20500;-37
2023/01/20 01:23:18;;;;;;;11.67;10.47;;;2.00;1.00;;;;;;5040175;28;20170;-40
2023/01/20 01:25:44;;;;;;;12.27;11.07;;;2.10;1.00;;;;;;5039705;28;20583;-38
2023/01/20 01:28:10;;;;;;;11.70;10.60;;;2.10;1.00;;;;;;5039981;28;20171;-41
2023/01/20 01:30:35;;;;;;;14.50;11.03;;;2.10;1.00;;;;;;5039758;28;20181;-39
2023/01/20 01:33:01;;;;;;;11.50;10.30;;;2.10;1.00;;;;;;5040293;28;20247;-38
2023/01/20 01:35:27;;;;;;;12.53;11.20;;;2.00;1.00;;;;;;5039583;28;20191;-37
2023/01/20 01:37:52;;;;;;;12.07;10.87;;;2.00;1.00;;;;;;5039889;28;20175;-37
2023/01/20 01:40:18;;;;;;;11.73;10.53;;;2.10;1.00;;;;;;5038791;28;20432;-38
2023/01/20 01:42:44;;;;;;;11.63;10.53;;;2.10;1.00;;;;;;5039190;28;20189;-37
2023/01/20 01:45:09;;;;;;;11.37;10.23;;;2.10;1.00;;;;;;5038979;28;20180;-37
2023/01/20 01:47:37;;;;;;;12.10;10.80;;;2.10;1.00;;;;;;5039269;28;20183;-40
2023/01/20 01:50:03;;;;;;;12.00;10.80;;;2.00;1.00;;;;;;5039141;28;20189;-37
2023/01/20 01:52:29;;;;;;;12.43;11.23;;;2.00;1.00;;;;;;5038106;28;20527;-37
2023/01/20 01:54:55;;;;;;;10.47;9.40;;;2.00;1.00;;;;;;5042034;28;20448;-38
2023/01/20 01:57:21;;;;;;;12.27;10.97;;;2.00;1.00;;;;;;5039422;28;20190;-37
2023/01/20 01:59:46;;;;;;;13.90;12.40;;;2.00;1.00;;;;;;5037596;28;20217;-38
2023/01/20 02:02:12;;;;;;;13.17;11.33;;;2.00;1.00;;;;;;5038679;28;20496;-37
2023/01/20 02:04:38;;;;;;;13.13;11.73;;;2.00;1.00;;;;;;5037707;28;20191;-38
2023/01/20 02:07:07;;;;;;;11.50;10.30;;;2.00;1.00;;;;;;5037428;28;20194;-37
2023/01/20 02:09:33;;;;;;;12.50;11.30;;;2.00;1.00;;;;;;5036939;28;20230;-38
2023/01/20 02:12:05;;;;;;;12.13;10.90;;;1.90;1.00;;;;;;5038122;28;20510;-41
2023/01/20 02:14:38;;;;;;;12.17;10.73;;;1.90;1.00;;;;;;5036231;28;20478;-39
2023/01/20 02:17:13;;;;;;;12.30;10.57;;;1.90;1.00;;;;;;5035618;28;20425;-37
2023/01/20 02:20:16;;;;;;;12.70;11.17;;;1.90;1.00;;;;;;5037516;28;20472;-38
2023/01/20 02:22:54;;;;;;;11.80;10.63;;;1.90;1.00;;;;;;5037380;28;20888;-37
2023/01/20 02:25:54;;;;;;;12.27;10.97;;;1.90;26.50;;;;;;5037088;28;20420;-37
2023/01/20 02:28:47;;;;;;;13.90;11.40;;;1.80;99.90;;;;;;5037547;28;20403;-37
2023/01/20 02:31:19;;;;;;;12.20;10.90;;;1.90;59.00;;;;;;5037404;28;20428;-37
2023/01/20 02:33:56;;;;;;;12.20;10.70;;;1.90;39.40;;;;;;5037489;28;20393;-43
2023/01/20 02:36:33;;;;;;;12.30;11.00;;;1.90;32.70;;;;;;5037675;28;20736;-39
2023/01/20 02:39:04;;;;;;;12.77;11.47;;;1.80;92.00;;;;;;5037870;28;20424;-37
2023/01/20 02:41:51;;;;;;;12.73;11.43;;;1.80;99.90;;;;;;5038268;28;20457;-38
2023/01/20 02:44:37;;;;;;;13.73;12.20;;;1.80;99.90;;;;;;5063707;28;20425;-42
2023/01/20 02:47:05;;;;;;;13.27;11.50;;;1.80;99.90;;;;;;5036538;28;20482;-37
2023/01/20 02:49:55;;;;;;;13.43;11.73;;;1.80;99.90;;;;;;5037247;28;20406;-38
2023/01/20 02:52:24;;;;;;;13.90;12.50;;;1.80;99.90;;;;;;5036794;28;20498;-39
2023/01/20 02:54:52;;;;;;;14.30;12.53;;;1.80;99.90;;;;;;5035492;28;20425;-40
2023/01/20 02:57:24;;;;;;;13.23;11.83;;;1.80;99.90;;;;;;5035677;28;20935;-40
2023/01/20 02:59:52;;;;;;;15.10;12.67;;;1.80;99.90;;;;;;5037104;28;20493;-38
2023/01/20 03:02:23;;;;;;;12.17;10.87;;;1.80;99.90;;;;;;5055931;28;20566;-37
2023/01/20 03:04:53;;;;;;;13.07;11.80;;;1.80;99.90;;;;;;5055720;28;20408;-39
2023/01/20 03:07:22;;;;;;;12.57;11.23;;;1.80;99.90;;;;;;5057182;28;20489;-38
2023/01/20 03:09:51;;;;;;;12.67;11.40;;;1.80;99.90;;;;;;5056483;28;20469;-36
2023/01/20 03:12:17;;;;;;;14.03;11.63;;;1.80;99.90;;;;;;5054288;28;20535;-38
2023/01/20 03:14:43;;;;;;;14.00;12.30;;;1.80;99.90;;;;;;5055884;28;20478;-37
2023/01/20 03:17:09;;;;;;;16.80;13.07;;;1.80;99.90;;;;;;5056355;28;20545;-38
2023/01/20 03:19:35;;;;;;;13.90;11.43;;;1.80;99.90;;;;;;5056819;28;20394;-37
2023/01/20 03:22:00;;;;;;;14.60;12.17;;;1.80;99.90;;;;;;5057280;28;20278;-37
2023/01/20 03:24:28;;;;;;;12.80;11.50;;;1.80;99.90;;;;;;5055300;28;20496;-37
2023/01/20 03:26:54;;;;;;;11.77;10.50;;;1.80;99.90;;;;;;5055718;28;20473;-36
2023/01/20 03:32:44;;;;;;;13.70;11.80;;;1.80;99.90;;;;;;5056642;28;20209;-37
2023/01/20 03:35:11;;;;;;;14.20;11.57;;;1.70;99.90;;;;;;5055366;28;20515;-37
2023/01/20 03:37:37;;;;;;;12.43;10.40;;;1.70;99.90;;;;;;5055303;28;20420;-38
2023/01/20 03:40:03;;;;;;;13.37;11.97;;;1.80;99.90;;;;;;5056407;28;20531;-37
2023/01/20 03:42:34;;;;;;;14.07;12.03;;;1.70;99.90;;;;;;5056670;28;20217;-37
2023/01/20 03:45:10;;;;;;;13.73;12.33;;;1.80;99.90;;;;;;5055566;28;20847;-42
2023/01/20 03:47:45;;;;;;;13.03;11.63;;;1.80;99.90;;;;;;5055819;28;20408;-36
2023/01/20 03:50:17;;;;;;;14.20;11.70;;;1.80;99.90;;;;;;5056202;28;20423;-38
2023/01/20 03:52:53;;;;;;;13.90;11.90;;;1.80;99.90;;;;;;5056521;28;20491;-37
2023/01/20 03:55:24;;;;;;;12.80;11.40;;;1.80;99.90;;;;;;5056594;28;20427;-35
2023/01/20 03:58:03;;;;;;;13.20;11.90;;;1.80;99.90;;;;;;5056254;28;20835;-37
2023/01/20 04:00:32;;;;;;;13.57;12.23;;;1.80;99.90;;;;;;5039209;28;20499;-37
2023/01/20 04:03:01;;;;;;;13.57;11.70;;;1.80;99.90;;;;;;5054985;28;20435;-36
2023/01/20 04:05:28;;;;;;;12.20;10.70;;;1.80;99.90;;;;;;5054054;28;20425;-40
2023/01/20 04:07:56;;;;;;;12.97;11.50;;;1.80;99.90;;;;;;5057947;28;20439;-37
2023/01/20 04:10:22;;;;;;;12.67;11.30;;;1.80;99.90;;;;;;5059410;28;20424;-38
2023/01/20 04:13:25;;;;;;;11.70;10.60;;;1.80;99.90;;;;;;5059224;28;20411;-36
2023/01/20 04:15:51;;;;;;;13.33;11.53;;;1.80;99.90;;;;;;5059285;28;20529;-36
2023/01/20 04:18:20;;;;;;;11.63;10.50;;;1.80;99.90;;;;;;5059947;28;20484;-37
2023/01/20 04:20:55;;;;;;;13.63;11.50;;;1.90;99.90;;;;;;5059398;28;20202;-37
2023/01/20 04:23:30;;;;;;;12.33;11.23;;;1.90;99.90;;;;;;5059094;28;20818;-37
2023/01/20 04:25:56;;;;;;;12.20;11.00;;;1.90;99.90;;;;;;5059767;28;20427;-42
2023/01/20 04:28:22;;;;;;;11.83;10.63;;;1.90;99.90;;;;;;5059582;28;20416;-36
2023/01/20 04:30:47;;;;;;;13.03;10.77;;;1.90;99.90;;;;;;5057445;28;20178;-37
2023/01/20 04:33:13;;;;;;;12.67;10.80;;;1.90;99.90;;;;;;5055643;28;20213;-37
2023/01/20 04:35:39;;;;;;;13.17;10.80;;;1.80;55.90;;;;;;5057474;28;20244;-35
2023/01/20 04:38:05;;;;;;;10.40;9.37;;;1.80;32.10;;;;;;5056361;28;20220;-41
2023/01/20 04:40:31;;;;;;;13.03;11.33;;;1.80;7.10;;;;;;5056177;28;20217;-37
2023/01/20 04:42:57;;;;;;;10.90;9.80;;;1.80;1.00;;;;;;5056451;28;20417;-37
2023/01/20 04:45:22;;;;;;;12.80;11.50;;;1.80;1.00;;;;;;5057518;28;20463;-42
2023/01/20 04:47:48;;;;;;;13.13;10.80;;;1.80;1.00;;;;;;5057002;28;20505;-40
2023/01/20 04:50:15;;;;;;;12.40;11.17;;;1.70;1.00;;;;;;5057968;28;20420;-38
2023/01/20 04:52:41;;;;;;;11.57;10.37;;;1.80;30.20;;;;;;5056005;28;20433;-36
2023/01/20 04:55:07;;;;;;;11.33;10.23;;;1.70;99.90;;;;;;5056379;28;20443;-37
2023/01/20 04:57:33;;;;;;;10.50;9.33;;;1.70;99.90;;;;;;5056257;28;20440;-37
2023/01/20 04:59:58;;;;;;;13.37;10.70;;;1.70;95.20;;;;;;5056678;28;20409;-37
2023/01/20 05:02:24;;;;;;;10.90;9.83;;;1.70;50.20;;;;;;5056480;28;20244;-36
2023/01/20 05:04:49;;;;;;;12.67;11.30;;;1.70;30.10;;;;;;5056666;28;20434;-38
2023/01/20 05:07:15;;;;;;;11.90;9.80;;;1.70;1.00;;;;;;5057584;28;20189;-37
2023/01/20 05:09:41;;;;;;;10.03;9.03;;;1.70;1.00;;;;;;5059285;28;20170;-37
2023/01/20 05:12:06;;;;;;;10.23;9.13;;;1.70;19.30;;;;;;5058529;28;20276;-42
2023/01/20 05:14:32;;;;;;;10.63;9.43;;;1.70;1.00;;;;;;5058819;28;20170;-37
2023/01/20 05:16:58;;;;;;;10.40;9.13;;;1.70;1.00;;;;;;5058919;28;20181;-38
2023/01/20 05:19:23;;;;;;;10.53;9.40;;;1.70;1.00;;;;;;5057576;28;20657;-37
2023/01/20 05:21:49;;;;;;;10.50;8.60;;;1.70;1.00;;;;;;5057928;28;20545;-36
2023/01/20 05:24:15;;;;;;;9.37;8.30;;;1.70;1.00;;;;;;5057750;28;20169;-37
2023/01/20 05:26:40;;;;;;;10.27;9.07;;;1.60;1.00;;;;;;5057150;28;20213;-39
2023/01/20 05:29:06;;;;;;;9.60;8.57;;;1.60;1.00;;;;;;5057835;28;20249;-38
2023/01/20 05:31:32;;;;;;;9.37;8.40;;;1.60;1.00;;;;;;5055715;28;20646;-37
2023/01/20 05:33:57;;;;;;;10.43;9.33;;;1.60;1.00;;;;;;5056653;28;20185;-36
2023/01/20 05:36:23;;;;;;;10.53;9.33;;;1.60;1.00;;;;;;5055071;28;20461;-36
2023/01/20 05:38:49;;;;;;;11.00;9.63;;;1.60;1.00;;;;;;5054186;28;20424;-37
2023/01/20 05:41:15;;;;;;;10.00;8.63;;;1.60;1.00;;;;;;5056414;28;20288;-37
2023/01/20 05:43:40;;;;;;;10.80;9.70;;;1.60;1.00;;;;;;5057050;28;20170;-39
2023/01/20 05:46:06;;;;;;;11.53;9.60;;;1.60;1.00;;;;;;5057726;28;20182;-37
2023/01/20 05:48:32;;;;;;;10.03;9.03;;;1.60;1.00;;;;;;5058124;28;20177;-37
2023/01/20 05:50:57;;;;;;;10.07;9.00;;;1.60;1.00;;;;;;5055394;28;20249;-37
2023/01/20 05:53:23;;;;;;;10.20;8.77;;;1.60;1.00;;;;;;5053588;28;20245;-37
2023/01/20 05:55:49;;;;;;;9.77;8.63;;;1.60;1.00;;;;;;5052862;28;20181;-40
2023/01/20 05:58:14;;;;;;;10.97;8.90;;;1.60;1.00;;;;;;5053977;28;20340;-37
2023/01/20 06:00:40;;;;;;;10.27;9.27;;;1.70;1.00;;;;;;5060649;28;20220;-37
2023/01/20 06:03:06;;;;;;;10.90;9.07;;;1.70;1.00;;;;;;5059207;28;20170;-36
2023/01/20 06:05:31;;;;;;;9.93;8.93;;;1.60;1.00;;;;;;5058375;28;20204;-40
2023/01/20 06:07:57;;;;;;;10.00;9.00;;;1.70;1.00;;;;;;5055308;28;20216;-38
2023/01/20 06:10:26;;;;;;;10.07;8.93;;;1.70;1.00;;;;;;5051353;28;20178;-37
2023/01/20 06:12:53;;;;;;;11.63;9.47;;;1.70;1.00;;;;;;5052502;28;20396;-39
2023/01/20 06:15:19;;;;;;;10.67;9.57;;;1.70;1.00;;;;;;5051104;28;20668;-42
2023/01/20 06:17:45;;;;;;;10.77;9.53;;;1.60;1.00;;;;;;5052758;28;20492;-37
2023/01/20 06:20:11;;;;;;;10.50;9.43;;;1.60;1.00;;;;;;5053015;28;20567;-38
2023/01/20 06:22:37;;;;;;;10.80;9.20;;;1.60;1.00;;;;;;5053373;28;20209;-40
2023/01/20 06:25:03;;;;;;;10.20;9.10;;;1.60;1.00;;;;;;5050800;28;20624;-38
2023/01/20 06:27:28;;;;;;;11.93;9.90;;;1.60;1.00;;;;;;5050543;28;20463;-40
2023/01/20 06:29:54;;;;;;;9.87;8.87;;;1.60;1.00;;;;;;5049227;28;20451;-40
2023/01/20 06:32:20;;;;;;;14.23;10.50;;;1.50;1.00;;;;;;5050110;28;20193;-38
2023/01/20 06:34:46;;;;;;;15.37;10.50;;;1.50;1.00;;;;;;5049567;28;20235;-38
2023/01/20 06:37:11;;;;;;;11.10;9.70;;;1.50;1.00;;;;;;5047724;28;20271;-38
2023/01/20 06:39:37;;;;;;;12.80;10.07;;;1.40;1.00;;;;;;5048105;28;20268;-42
2023/01/20 06:42:03;;;;;;;9.47;8.17;;;1.40;1.00;;;;;;5052368;28;20668;-35
2023/01/20 06:44:29;;;;;;;9.07;8.17;;;1.40;1.00;;;;;;5053247;28;20440;-36
2023/01/20 06:46:56;;;;;;;8.60;7.80;;;1.40;1.00;;;;;;5049330;28;20196;-41
2023/01/20 06:49:22;;;;;;;9.97;7.53;;;1.30;1.00;;;;;;5051242;28;20413;-36
2023/01/20 06:51:48;;;;;;;8.50;7.27;;;1.30;1.00;;;;;;5052520;28;20439;-38
2023/01/20 06:54:14;;;;;;;9.40;8.07;;;1.30;1.00;;;;;;5051791;28;20868;-41
2023/01/20 06:56:40;;;;;;;10.80;8.50;;;1.20;1.00;;;;;;5052557;28;20166;-39
2023/01/20 06:59:06;;;;;;;12.20;9.23;;;1.20;1.00;;;;;;5052839;28;20412;-37
2023/01/20 07:01:32;;;;;;;12.10;8.70;;;1.20;1.00;;;;;;5052732;28;20229;-36
2023/01/20 07:03:58;;;;;;;15.17;10.67;;;1.10;1.00;;;;;;5050949;28;20174;-40
2023/01/20 07:06:28;;;;;;;15.87;10.83;;;1.10;1.00;;;;;;5034434;28;20658;-42
2023/01/20 07:08:54;;;;;;;14.47;10.30;;;1.10;1.00;;;;;;5052602;28;20420;-41
2023/01/20 07:11:20;;;;;;;24.90;13.83;;;1.10;99.90;;;;;;5052022;28;20532;-40
2023/01/20 07:13:45;;;;;;;42.63;21.00;;;1.00;99.90;;;;;;5052167;28;20420;-39
2023/01/20 07:16:11;;;;;;;70.63;33.90;;;1.00;99.90;;;;;;5052966;28;20189;-39
2023/01/20 07:18:38;;;;;;;70.43;32.23;;;1.00;99.90;;;;;;5054593;28;20268;-42
2023/01/20 07:21:04;;;;;;;57.17;30.77;;;1.00;99.90;;;;;;5054809;28;20483;-36
2023/01/20 07:23:32;;;;;;;45.87;26.87;;;1.00;99.90;;;;;;5055036;28;20408;-42
2023/01/20 07:26:11;;;;;;;49.27;28.97;;;1.00;99.90;;;;;;5052246;28;20424;-40
2023/01/20 07:28:37;;;;;;;15.63;6.47;;;1.00;99.90;;;;;;5053334;28;20408;-37
2023/01/20 07:31:03;;;;;;;19.20;13.37;;;4.80;1.00;;;;;;5052381;28;20455;-41
2023/01/20 07:33:30;;;;;;;25.20;17.70;;;8.10;1.00;;;;;;5058397;28;20181;-38
2023/01/20 07:35:55;;;;;;;15.60;13.53;;;8.10;1.00;;;;;;5040728;28;20491;-38
2023/01/20 07:38:21;;;;;;;16.77;14.97;;;7.30;1.00;;;;;;5035229;28;20420;-45
2023/01/20 07:40:47;;;;;;;13.90;12.50;;;6.50;1.00;;;;;;5034393;28;20640;-37
2023/01/20 07:43:12;;;;;;;14.20;12.67;;;5.70;99.90;;;;;;5037256;28;20392;-38
2023/01/20 07:45:38;;;;;;;15.33;13.50;;;5.10;99.90;;;;;;5038543;28;20182;-41
2023/01/20 07:48:05;;;;;;;13.20;11.90;;;4.50;99.90;;;;;;5039543;28;20181;-39
2023/01/20 07:50:31;;;;;;;14.53;13.00;;;4.10;99.90;;;;;;5039156;28;20459;-37
2023/01/20 07:52:57;;;;;;;17.37;13.30;;;3.70;99.90;;;;;;5058813;28;20412;-37
2023/01/20 07:55:22;;;;;;;14.63;13.13;;;3.40;99.90;;;;;;5059208;28;20169;-37
2023/01/20 07:57:49;;;;;;;14.87;13.27;;;3.20;1.00;;;;;;5058072;28;20192;-43
2023/01/20 08:00:17;;;;;;;15.47;13.00;;;3.00;1.00;;;;;;5059160;28;20193;-39
2023/01/20 08:02:43;;;;;;;16.17;14.47;;;2.90;1.00;;;;;;5060568;28;20502;-38
2023/01/20 08:05:09;;;;;;;14.40;13.00;;;2.80;1.00;;;;;;5058284;28;20447;-41
2023/01/20 08:07:34;;;;;;;14.37;12.87;;;2.70;1.00;;;;;;5058905;28;20276;-38
2023/01/20 08:10:00;;;;;;;16.00;13.73;;;2.60;1.00;;;;;;5063835;28;20554;-38
2023/01/20 08:12:28;;;;;;;15.87;14.07;;;2.60;1.00;;;;;;5062224;28;20173;-39
2023/01/20 08:14:53;;;;;;;20.90;15.40;;;2.50;1.00;;;;;;5068473;28;20170;-41
2023/01/20 08:17:19;;;;;;;19.87;16.17;;;2.50;1.00;;;;;;5069229;28;20459;-38
2023/01/20 08:19:44;;;;;;;20.30;17.40;;;2.40;1.00;;;;;;5067846;28;20243;-38
2023/01/20 08:22:10;;;;;;;19.70;17.60;;;2.40;1.00;;;;;;5066719;28;20247;-38
2023/01/20 08:24:36;;;;;;;20.00;17.23;;;2.50;99.90;;;;;;5067869;28;20173;-39
2023/01/20 08:27:02;;;;;;;18.40;15.10;;;2.50;99.90;;;;;;5066325;28;20244;-38
2023/01/20 08:29:28;;;;;;;17.00;15.20;;;2.60;1.00;;;;;;5062568;28;20170;-37
2023/01/20 08:31:54;;;;;;;14.50;13.00;;;2.60;1.00;;;;;;5056458;28;20217;-38
2023/01/20 08:34:20;;;;;;;18.20;12.60;;;2.80;1.00;;;;;;5038466;28;20421;-38
2023/01/20 08:36:48;;;;;;;12.50;11.20;;;3.00;99.90;;;;;;5050438;28;20595;-41
2023/01/20 08:39:17;;;;;;;15.17;11.87;;;3.10;99.90;;;;;;5058326;28;20419;-38
2023/01/20 08:41:44;;;;;;;11.50;10.40;;;3.20;1.00;;;;;;5058606;28;20484;-40
2023/01/20 08:44:10;;;;;;;11.83;10.50;;;3.40;99.90;;;;;;5059118;28;20423;-37
2023/01/20 08:46:36;;;;;;;12.13;10.30;;;3.50;1.00;;;;;;5058277;28;20496;-39
2023/01/20 08:49:06;;;;;;;10.47;9.40;;;3.70;99.90;;;;;;5058256;28;20427;-37
2023/01/20 08:51:33;;;;;;;9.60;8.60;;;3.90;56.20;;;;;;5057818;28;20425;-37
2023/01/20 08:53:58;;;;;;;10.80;9.33;;;4.10;1.00;;;;;;5056234;28;20451;-39
2023/01/20 08:56:24;;;;;;;14.50;10.43;;;4.20;99.90;;;;;;5056875;28;20790;-40
2023/01/20 08:58:50;;;;;;;10.50;8.97;;;4.30;62.70;;;;;;5056953;28;20527;-37
2023/01/20 09:01:22;;;;;;;14.73;9.80;;;4.50;1.00;;;;;;5057435;28;20217;-42
2023/01/20 09:03:47;;;;;;;11.77;9.73;;;4.60;1.00;;;;;;5056387;28;20420;-38
2023/01/20 09:06:14;;;;;;;10.83;9.60;;;4.80;1.00;;;;;;5058143;28;20434;-37
2023/01/20 09:08:40;;;;;;;11.83;10.00;;;5.00;99.90;;;;;;5057724;28;20166;-38
2023/01/20 09:11:14;;;;;;;10.10;9.10;;;5.10;99.90;;;;;;5056466;28;20535;-38
2023/01/20 09:13:40;;;;;;;12.17;10.40;;;5.20;95.00;;;;;;5057221;28;20423;-41
2023/01/20 09:16:06;;;;;;;12.33;10.50;;;5.30;1.00;;;;;;5057369;28;20509;-41
2023/01/20 09:18:33;;;;;;;12.10;10.33;;;5.40;1.00;;;;;;5056666;28;20476;-37
2023/01/20 09:20:59;;;;;;;12.37;10.73;;;5.50;1.00;;;;;;5056605;28;20415;-40
2023/01/20 09:23:25;;;;;;;6.73;5.70;;;5.70;1.00;;;;;;5056602;28;21047;-39
2023/01/20 09:25:51;;;;;;;9.47;7.27;;;7.30;1.00;;;;;;5056563;28;20847;-41
2023/01/20 09:28:17;;;;;;;13.67;8.53;;;8.50;1.00;;;;;;5056863;28;20431;-38
2023/01/20 09:30:43;;;;;;;11.87;10.57;;;9.30;1.00;;;;;;5056301;28;20494;-38
2023/01/20 09:33:09;;;;;;;11.50;10.30;;;9.50;1.00;;;;;;5057871;28;20208;-39
2023/01/20 09:35:35;;;;;;;11.53;10.43;;;9.60;99.90;;;;;;5057621;28;20319;-38
2023/01/20 09:44:21;;;;;;;14.40;9.70;;;8.90;94.10;;;;;;5055901;28;20487;-40
2023/01/20 09:55:32;;;;;;;8.43;7.63;;;9.00;1.00;;;;;;5056302;28;20412;-42
2023/01/20 09:58:05;;;;;;;8.70;7.80;;;9.20;1.00;;;;;;5056440;28;20438;-38
2023/01/20 10:00:33;;;;;;;9.30;8.30;;;9.20;1.00;;;;;;5056569;28;20412;-38
2023/01/20 10:03:06;;;;;;;8.97;7.33;;;9.30;1.00;;;;;;5053590;28;20720;-40
2023/01/20 10:05:37;;;;;;;8.50;7.67;;;9.40;1.00;;;;;;5034808;28;20423;-38
2023/01/20 10:08:19;;;;;;;7.43;6.80;;;9.60;1.00;;;;;;5056393;28;20451;-37
2023/01/20 10:11:02;;;;;;;8.10;7.30;;;9.90;1.00;;;;;;5053837;28;20435;-37
2023/01/20 10:13:55;;;;;;;7.40;6.70;;;10.00;1.00;;;;;;5054607;28;20482;-37
2023/01/20 10:16:37;;;;;;;7.83;6.53;;;10.20;1.00;;;;;;5055214;28;20447;-38
2023/01/20 10:19:44;;;;;;;10.00;5.90;;;10.40;1.00;;;;;;5053176;28;20553;-41
2023/01/20 10:22:14;;;;;;;6.90;6.30;;;10.70;1.00;;;;;;5054600;28;20556;-38
2023/01/20 10:24:57;;;;;;;6.93;5.97;;;11.30;1.00;;;;;;5053437;28;20416;-38
2023/01/20 10:27:25;;;;;;;6.73;6.13;;;11.70;1.00;;;;;;5055144;28;20835;-38
2023/01/20 10:29:56;;;;;;;7.53;6.73;;;12.90;1.00;;;;;;5053135;28;20408;-37
2023/01/20 10:32:36;;;;;;;6.47;5.83;;;14.20;1.00;;;;;;5053306;28;20731;-39
2023/01/20 10:35:18;;;;;;;5.87;5.30;;;15.00;1.00;;;;;;5054895;28;20412;-37
2023/01/20 10:37:43;;;;;;;7.33;6.37;;;15.90;1.00;;;;;;5053508;28;20420;-39
2023/01/20 10:40:28;;;;;;;6.53;6.00;;;16.80;1.00;;;;;;5053149;28;20413;-43
2023/01/20 10:42:58;;;;;;;6.60;6.00;;;17.10;1.00;;;;;;5053019;28;20358;-37
2023/01/20 10:45:47;;;;;;;7.00;6.30;;;17.70;1.00;;;;;;5050989;28;20424;-38
2023/01/20 10:48:15;;;;;;;6.53;5.83;;;18.30;1.00;;;;;;5049034;28;20425;-43
2023/01/20 10:50:46;;;;;;;6.97;6.37;;;18.60;1.00;;;;;;5053753;28;20455;-38
2023/01/20 10:53:43;;;;;;;8.00;7.20;;;18.80;1.00;;;;;;5038437;28;20832;-36
2023/01/20 10:56:34;;;;;;;7.17;6.40;;;18.30;1.00;;;;;;5053894;28;20831;-39
2023/01/20 10:59:16;;;;;;;7.33;6.73;;;17.90;1.00;;;;;;5054570;28;20415;-38
2023/01/20 11:01:44;;;;;;;7.60;6.80;;;17.30;1.00;;;;;;5053301;28;20479;-42
2023/01/20 11:04:17;;;;;;;6.90;6.20;;;17.00;1.00;;;;;;5052005;28;20502;-40
2023/01/20 11:06:43;;;;;;;6.60;5.97;;;16.80;1.00;;;;;;5054062;28;20689;-38
2023/01/20 11:09:21;;;;;;;7.20;6.50;;;16.50;1.00;;;;;;5054408;28;20431;-37
2023/01/20 11:11:47;;;;;;;7.63;6.10;;;16.80;1.00;;;;;;5052318;28;20427;-37
2023/01/20 11:14:13;;;;;;;6.83;6.23;;;17.60;1.00;;;;;;5053151;28;20544;-41
2023/01/20 11:16:41;;;;;;;7.03;6.43;;;18.60;1.00;;;;;;5053234;28;20733;-41
2023/01/20 11:19:06;;;;;;;6.77;6.13;;;19.00;1.00;;;;;;5058228;28;20486;-38
2023/01/20 11:21:35;;;;;;;7.07;6.10;;;20.10;1.00;;;;;;5058625;28;20881;-42
2023/01/20 11:24:23;;;;;;;5.63;3.77;;;21.70;1.00;;;;;;5058119;28;20332;-40
2023/01/20 11:26:49;;;;;;;7.43;4.20;;;22.50;1.00;;;;;;5058658;28;20435;-38
2023/01/20 11:29:15;;;;;;;4.77;4.13;;;24.10;1.00;;;;;;5057685;28;20416;-39
2023/01/20 11:31:47;;;;;;;6.53;4.63;;;25.10;1.00;;;;;;5058003;28;20476;-46
2023/01/20 11:34:33;;;;;;;6.50;4.77;;;25.60;1.00;;;;;;5039940;28;20414;-46
2023/01/20 11:37:05;;;;;;;6.63;5.00;;;26.50;1.00;;;;;;5057503;28;20497;-43
2023/01/20 11:39:48;;;;;;;9.80;4.50;;;26.50;1.00;;;;;;5057338;28;20412;-46
2023/01/20 11:42:43;;;;;;;4.50;3.90;;;27.20;1.00;;;;;;5059189;28;20483;-46
2023/01/20 11:45:34;;;;;;;4.93;4.53;;;28.60;1.00;;;;;;5058091;28;20421;-44
2023/01/20 11:48:16;;;;;;;4.40;4.00;;;29.90;1.00;;;;;;5056298;28;20509;-41
2023/01/20 11:50:57;;;;;;;4.50;4.00;;;30.80;1.00;;;;;;5058060;28;20451;-40
2023/01/20 11:53:25;;;;;;;6.50;4.63;;;32.00;1.00;;;;;;5054673;28;20542;-42
2023/01/20 11:55:50;;;;;;;4.80;4.40;;;33.10;1.00;;;;;;5057474;28;20783;-41
2023/01/20 11:58:22;;;;;;;9.13;5.33;;;34.00;1.00;;;;;;5056728;28;20523;-41
2023/01/20 12:01:10;;;;;;;4.90;4.40;;;34.50;1.00;;;;;;5057696;28;20205;-41
2023/01/20 12:03:48;;;;;;;5.87;5.30;;;35.10;1.00;;;;;;5054068;28;20433;-48
2023/01/20 12:06:26;;;;;;;6.03;5.53;;;35.80;1.00;;;;;;5055858;28;20412;-45
2023/01/20 12:09:01;;;;;;;6.73;6.13;;;36.30;1.00;;;;;;5056015;28;20683;-45
2023/01/20 12:11:44;;;;;;;6.13;5.00;;;36.40;1.00;;;;;;5055537;28;20427;-42
2023/01/20 12:14:27;;;;;;;5.33;4.80;;;35.70;1.00;;;;;;5055582;28;20412;-41
2023/01/20 12:17:07;;;;;;;5.43;5.03;;;34.40;1.00;;;;;;5056396;28;20570;-40
2023/01/20 12:19:47;;;;;;;12.33;8.77;;;34.30;1.00;;;;;;5054154;28;20754;-44
2023/01/20 12:22:20;;;;;;;29.60;21.33;;;34.50;1.00;;;;;;5050784;28;20471;-45
2023/01/20 12:25:08;;;;;;;22.67;16.03;;;34.10;1.00;;;;;;5055298;28;20474;-41
2023/01/20 12:27:42;;;;;;;10.60;9.20;;;33.90;1.00;;;;;;5053797;28;20856;-44
2023/01/20 12:30:19;;;;;;;8.30;7.53;;;33.10;1.00;;;;;;5036424;28;20719;-41
2023/01/20 12:32:45;;;;;;;7.43;6.73;;;33.30;1.00;;;;;;5053415;28;20424;-40
2023/01/20 12:35:14;;;;;;;5.40;4.90;;;33.70;1.00;;;;;;5050799;28;20443;-42
2023/01/20 12:38:05;;;;;;;4.97;3.93;;;33.80;1.00;;;;;;5051699;28;20542;-43
2023/01/20 12:40:38;;;;;;;3.83;3.43;;;34.40;1.00;;;;;;5051617;28;20719;-41
2023/01/20 12:43:22;;;;;;;3.13;2.80;;;34.00;1.00;;;;;;5053193;28;20416;-41
2023/01/20 12:46:12;;;;;;;4.90;4.30;;;33.70;1.00;;;;;;5052929;28;20855;-42
2023/01/20 12:49:20;;;;;;;3.83;3.50;;;32.70;1.00;;;;;;5052404;28;20494;-45
2023/01/20 12:52:21;;;;;;;3.47;3.10;;;32.00;1.00;;;;;;5028055;28;20501;-40
2023/01/20 12:54:56;;;;;;;2.87;2.60;;;32.60;1.00;;;;;;5009533;28;20421;-40
2023/01/20 12:57:43;;;;;;;3.03;2.20;;;33.20;1.00;;;;;;5043356;28;20835;-41
2023/01/20 13:00:40;;;;;;;2.30;2.10;;;32.40;1.00;;;;;;5053440;28;20448;-39
2023/01/20 13:03:15;;;;;;;5.80;3.50;;;31.90;1.00;;;;;;5053702;28;20780;-40
2023/01/20 13:06:08;;;;;;;3.90;3.40;;;31.80;1.00;;;;;;5036349;28;20416;-40
2023/01/20 13:09:01;;;;;;;4.43;3.03;;;30.80;1.00;;;;;;5036400;28;20429;-39
2023/01/20 13:11:49;;;;;;;4.87;3.37;;;28.70;1.00;;;;;;5030072;28;20682;-42
2023/01/20 13:14:30;;;;;;;7.80;6.20;;;26.90;1.00;;;;;;5032705;28;20419;-41
2023/01/20 13:17:00;;;;;;;5.40;4.90;;;25.10;1.00;;;;;;5032173;28;20865;-41
2023/01/20 13:19:40;;;;;;;6.87;4.90;;;23.80;1.00;;;;;;5030753;28;20859;-43
2023/01/20 13:22:16;;;;;;;5.97;5.23;;;22.70;1.00;;;;;;5032369;28;20468;-41